Hudson — CGDG — position and weather

sailwx.info

Track history (hours):
 
Tides and Currents Weather Stations Pressure Air Temp Water Temp Dewpoint Dewpoint Depression Visibility Wind Speed Wind Dir Waves Ship Positions

Oceanographic research ship Hudson (Canada)

Detailed information on ship capabilities available from University of Delaware's Ocean Information Center.

Last reported at 2014-Sep-19 21:33 UTC. Time now 2014-Sep-20 15:58 UTC.
Position N 44°23' W 063°26'.

Length 85.03 m; beam 15.2 m; draft 6.28 m.

Type: SAR. MMSI: 316024000.

Date/timePositionNaut miles runAvg speedWind from/ knotsBaromVisibWave heightAir tempDewpointWater temp
2014-Sep-19 21:33N 44°23' W 063°26'8 2.4
2014-Sep-19 18:25N 44°30' W 063°31'910.7
2014-Sep-19 17:33N 44°39' W 063°34'4 3.8
2014-Sep-19 16:33N 44°41' W 063°38'0 0.3
2014-Sep-19 15:33N 44°41' W 063°39'1 0.5
2014-Sep-19 14:33N 44°41' W 063°38'1 0.5
2014-Sep-19 13:33N 44°42' W 063°39'1 1.1
2014-Sep-19 12:19N 44°41' W 063°37'0 0.0
2014-Sep-19 11:22N 44°41' W 063°37'0 0.0
2014-Sep-19 10:25N 44°41' W 063°37'0 0.0
2014-Sep-19 09:25N 44°41' W 063°37'0 0.0
2014-Sep-19 08:28N 44°41' W 063°37'0 0.0
2014-Sep-19 07:28N 44°41' W 063°37'0 0.0
2014-Sep-19 05:28N 44°41' W 063°37'0 0.0
2014-Sep-19 04:31N 44°41' W 063°37'0 0.0
2014-Sep-19 03:31N 44°41' W 063°37'0 0.0
2014-Sep-19 02:31N 44°41' W 063°37'0 0.0
2014-Sep-19 01:31N 44°41' W 063°37'0 0.0
2014-Sep-19 00:31N 44°41' W 063°37'0 0.0
2014-Sep-18 23:22N 44°41' W 063°37'0 0.0
2014-Sep-18 21:22N 44°41' W 063°37'0 0.0
2014-Sep-18 20:22N 44°41' W 063°37'0 0.0
2014-Sep-18 19:25N 44°41' W 063°37'0 0.0
2014-Sep-18 18:28N 44°41' W 063°37'0 0.0
2014-Sep-18 17:13N 44°41' W 063°37'0 0.0
2014-Sep-18 16:28N 44°41' W 063°37'0 0.0
2014-Sep-18 15:31N 44°41' W 063°37'0 0.0
2014-Sep-18 14:31N 44°41' W 063°37'0 0.0
2014-Sep-18 13:31N 44°41' W 063°37'0 0.0
2014-Sep-18 12:31N 44°41' W 063°37'0 0.0
2014-Sep-18 11:19N 44°41' W 063°37'0 0.0
2014-Sep-18 10:31N 44°41' W 063°37'0 0.0
2014-Sep-18 09:19N 44°41' W 063°37'0 0.0
2014-Sep-18 08:22N 44°41' W 063°37'0 0.0
2014-Sep-18 07:25N 44°41' W 063°37'0 0.0
2014-Sep-18 06:25N 44°41' W 063°37'0 0.0
2014-Sep-18 05:25N 44°41' W 063°37'0 0.0
2014-Sep-18 04:28N 44°41' W 063°37'0 0.0
2014-Sep-18 03:25N 44°41' W 063°37'0 0.0
2014-Sep-18 02:28N 44°41' W 063°37'0 0.0
2014-Sep-18 01:31N 44°41' W 063°37'0 0.0
2014-Sep-18 00:31N 44°41' W 063°37'0 0.0
2014-Sep-17 23:31N 44°41' W 063°37'0 0.0
2014-Sep-17 22:28N 44°41' W 063°37'0 0.0
2014-Sep-17 21:31N 44°41' W 063°37'0 0.0
2014-Sep-17 15:18N 44°41' W 063°37'0 0.0
2014-Sep-17 14:33N 44°41' W 063°37'0 0.0
2014-Sep-17 13:06N 44°41' W 063°37'0 0.0
2014-Sep-17 12:30N 44°41' W 063°37'0 0.0
2014-Sep-17 11:33N 44°41' W 063°37'0 0.0
2014-Sep-17 10:33N 44°41' W 063°37'0 0.0
2014-Sep-17 09:33N 44°41' W 063°37'0 0.0
2014-Sep-17 08:33N 44°41' W 063°37'0 0.0
2014-Sep-17 07:33N 44°41' W 063°37'0 0.0
2014-Sep-17 06:33N 44°41' W 063°37'0 0.0
2014-Sep-17 05:33N 44°41' W 063°37'0 0.0
2014-Sep-17 04:24N 44°41' W 063°37'0 0.0
2014-Sep-17 03:27N 44°41' W 063°37'0 0.0
2014-Sep-17 02:27N 44°41' W 063°37'0 0.0
2014-Sep-17 01:27N 44°41' W 063°37'0 0.0
2014-Sep-17 00:30N 44°41' W 063°37'0 0.0
2014-Sep-16 23:27N 44°41' W 063°37'0 0.0
2014-Sep-16 22:30N 44°41' W 063°37'0 0.0
2014-Sep-16 21:33N 44°41' W 063°37'0 0.0
2014-Sep-16 20:30N 44°41' W 063°37'0 0.0
2014-Sep-16 19:30N 44°41' W 063°37'0 0.0
2014-Sep-16 18:33N 44°41' W 063°37'0 0.0
2014-Sep-16 17:15N 44°41' W 063°37'0 0.0
2014-Sep-16 16:33N 44°41' W 063°37'0 0.0
2014-Sep-16 15:33N 44°41' W 063°37'0 0.0
2014-Sep-16 14:33N 44°41' W 063°37'0 0.0
2014-Sep-16 13:21N 44°41' W 063°37'0 0.0
2014-Sep-16 12:33N 44°41' W 063°37'0 0.0
2014-Sep-16 11:09N 44°41' W 063°37'0 0.0
2014-Sep-16 10:27N 44°41' W 063°37'0 0.0
2014-Sep-16 09:09N 44°41' W 063°37'0 0.0
2014-Sep-16 08:27N 44°41' W 063°37'0 0.0
2014-Sep-16 07:09N 44°41' W 063°37'0 0.0
2014-Sep-16 06:30N 44°41' W 063°37'0 0.0
2014-Sep-16 05:27N 44°41' W 063°37'0 0.0
2014-Sep-16 04:33N 44°41' W 063°37'0 0.0
2014-Sep-16 03:33N 44°41' W 063°37'0 0.0
2014-Sep-16 02:28N 44°41' W 063°37'0 0.0
2014-Sep-16 01:31N 44°41' W 063°37'0 0.0
2014-Sep-16 00:31N 44°41' W 063°37'0 0.0
2014-Sep-15 23:19N 44°41' W 063°37'0 0.0
2014-Sep-15 22:31N 44°41' W 063°37'0 0.0
2014-Sep-15 21:22N 44°41' W 063°37'0 0.0
2014-Sep-15 20:22N 44°41' W 063°37'0 0.0
2014-Sep-15 19:25N 44°41' W 063°37'0 0.0
2014-Sep-15 18:25N 44°41' W 063°37'0 0.0
2014-Sep-15 17:25N 44°41' W 063°37'0 0.0
2014-Sep-15 16:28N 44°41' W 063°37'0 0.0
2014-Sep-15 15:13N 44°41' W 063°37'0 0.0
2014-Sep-15 14:28N 44°41' W 063°37'0 0.0
2014-Sep-15 13:31N 44°41' W 063°37'0 0.0
2014-Sep-15 12:31N 44°41' W 063°37'0 0.0
2014-Sep-15 11:31N 44°41' W 063°37'0 0.0
2014-Sep-15 10:31N 44°41' W 063°37'0 0.0
2014-Sep-15 09:19N 44°41' W 063°37'0 0.0
2014-Sep-15 08:31N 44°41' W 063°37'0 0.0
2014-Sep-15 07:31N 44°41' W 063°37'0 0.0
2014-Sep-15 06:22N 44°41' W 063°37'0 0.0
2014-Sep-15 05:25N 44°41' W 063°37'0 0.0
2014-Sep-15 04:25N 44°41' W 063°37'0 0.0
2014-Sep-15 03:25N 44°41' W 063°37'0 0.0
2014-Sep-15 02:28N 44°41' W 063°37'0 0.0
2014-Sep-15 01:28N 44°41' W 063°37'0 0.0
2014-Sep-15 00:28N 44°41' W 063°37'0 0.0
2014-Sep-14 23:31N 44°41' W 063°37'0 0.0
2014-Sep-14 22:28N 44°41' W 063°37'0 0.0
2014-Sep-14 21:31N 44°41' W 063°37'0 0.0
2014-Sep-14 20:31N 44°41' W 063°37'0 0.0
2014-Sep-14 19:31N 44°41' W 063°37'0 0.0
2014-Sep-14 18:31N 44°41' W 063°37'0 0.0
2014-Sep-14 17:31N 44°41' W 063°37'0 0.0
2014-Sep-14 16:22N 44°41' W 063°37'0 0.0
2014-Sep-14 15:25N 44°41' W 063°37'0 0.0
2014-Sep-14 14:25N 44°41' W 063°37'0 0.0
2014-Sep-14 13:25N 44°41' W 063°37'0 0.0
2014-Sep-14 12:28N 44°41' W 063°37'0 0.0
2014-Sep-14 11:28N 44°41' W 063°37'0 0.0
2014-Sep-14 10:28N 44°41' W 063°37'0 0.0
2014-Sep-14 09:31N 44°41' W 063°37'0 0.0
2014-Sep-14 08:31N 44°41' W 063°37'0 0.0
2014-Sep-14 07:28N 44°41' W 063°37'0 0.0
2014-Sep-14 06:31N 44°41' W 063°37'0 0.0
2014-Sep-14 05:31N 44°41' W 063°37'0 0.0
2014-Sep-14 04:22N 44°41' W 063°37'0 0.0
2014-Sep-14 03:31N 44°41' W 063°37'0 0.0
2014-Sep-14 02:07N 44°41' W 063°37'0 0.0
2014-Sep-14 01:25N 44°41' W 063°37'0 0.0
2014-Sep-13 21:28N 44°41' W 063°37'0 0.0
2014-Sep-13 20:28N 44°41' W 063°37'0 0.0
2014-Sep-13 19:28N 44°41' W 063°37'0 0.0
2014-Sep-13 18:31N 44°41' W 063°37'0 0.0
2014-Sep-13 17:31N 44°41' W 063°37'0 0.0
2014-Sep-13 16:19N 44°41' W 063°37'0 0.0
2014-Sep-13 15:31N 44°41' W 063°37'0 0.0
2014-Sep-13 14:31N 44°41' W 063°37'0 0.0
2014-Sep-13 13:22N 44°41' W 063°37'0 0.0
2014-Sep-13 12:25N 44°41' W 063°37'0 0.0
2014-Sep-13 11:22N 44°41' W 063°37'0 0.0
2014-Sep-13 10:22N 44°41' W 063°37'0 0.0
2014-Sep-13 09:25N 44°41' W 063°37'0 0.0
2014-Sep-13 08:28N 44°41' W 063°37'0 0.0
2014-Sep-13 07:28N 44°41' W 063°37'0 0.0
2014-Sep-13 06:28N 44°41' W 063°37'0 0.0
2014-Sep-13 05:25N 44°41' W 063°37'0 0.0
2014-Sep-13 04:31N 44°41' W 063°37'0 0.0
2014-Sep-13 03:31N 44°41' W 063°37'0 0.0
2014-Sep-13 02:28N 44°41' W 063°37'0 0.0
2014-Sep-13 01:19N 44°41' W 063°37'0 0.0
2014-Sep-13 00:31N 44°41' W 063°37'0 0.0
2014-Sep-12 23:22N 44°41' W 063°37'0 0.0
2014-Sep-12 22:22N 44°41' W 063°37'0 0.0
2014-Sep-12 21:25N 44°41' W 063°37'0 0.0
2014-Sep-12 20:25N 44°41' W 063°37'0 0.0
2014-Sep-12 19:13N 44°41' W 063°37'0 0.0
2014-Sep-12 18:28N 44°41' W 063°37'0 0.0
2014-Sep-12 17:28N 44°41' W 063°37'0 0.0
2014-Sep-12 16:31N 44°41' W 063°37'0 0.0
2014-Sep-12 15:16N 44°41' W 063°37'0 0.0
2014-Sep-12 14:31N 44°41' W 063°37'0 0.0
2014-Sep-12 13:28N 44°41' W 063°37'0 0.0
2014-Sep-12 12:19N 44°41' W 063°37'0 0.0
2014-Sep-12 11:31N 44°41' W 063°37'0 0.0
2014-Sep-12 10:31N 44°41' W 063°37'0 0.0
2014-Sep-12 09:22N 44°41' W 063°37'0 0.0
2014-Sep-12 08:25N 44°41' W 063°37'0 0.0
2014-Sep-12 07:25N 44°41' W 063°37'0 0.0
2014-Sep-12 06:25N 44°41' W 063°37'0 0.0
2014-Sep-12 05:28N 44°41' W 063°37'0 0.0
2014-Sep-12 04:28N 44°41' W 063°37'0 0.0
2014-Sep-12 03:28N 44°41' W 063°37'0 0.0
2014-Sep-12 02:25N 44°41' W 063°37'0 0.0
2014-Sep-12 01:31N 44°41' W 063°37'0 0.0
2014-Sep-12 00:31N 44°41' W 063°37'0 0.0
2014-Sep-11 23:28N 44°41' W 063°37'0 0.0
2014-Sep-11 22:31N 44°41' W 063°37'0 0.0
2014-Sep-11 21:31N 44°41' W 063°37'0 0.0
2014-Sep-11 20:31N 44°41' W 063°37'0 0.0
2014-Sep-11 19:22N 44°41' W 063°37'0 0.0
2014-Sep-11 18:25N 44°41' W 063°37'0 0.0
2014-Sep-11 17:25N 44°41' W 063°37'0 0.0
2014-Sep-11 16:25N 44°41' W 063°37'0 0.0
2014-Sep-11 15:28N 44°41' W 063°37'0 0.0
2014-Sep-11 14:28N 44°41' W 063°37'0 0.0
2014-Sep-11 13:28N 44°41' W 063°37'0 0.0
2014-Sep-11 12:31N 44°41' W 063°37'0 0.0
2014-Sep-11 11:28N 44°41' W 063°37'0 0.0
2014-Sep-11 10:31N 44°41' W 063°37'0 0.0
2014-Sep-11 09:19N 44°41' W 063°37'0 0.0
2014-Sep-11 08:31N 44°41' W 063°37'0 0.0
2014-Sep-11 07:22N 44°41' W 063°37'0 0.0
2014-Sep-11 06:22N 44°41' W 063°37'0 0.0
2014-Sep-11 05:22N 44°41' W 063°37'0 0.0
2014-Sep-11 04:25N 44°41' W 063°37'0 0.0
2014-Sep-11 03:25N 44°41' W 063°37'0 0.0
2014-Sep-11 02:25N 44°41' W 063°37'0 0.0
2014-Sep-11 01:28N 44°41' W 063°37'0 0.0
2014-Sep-11 00:28N 44°41' W 063°37'0 0.0
2014-Sep-10 23:28N 44°41' W 063°37'0 0.0
2014-Sep-10 22:31N 44°41' W 063°37'0 0.0
2014-Sep-10 21:31N 44°41' W 063°37'0 0.0
2014-Sep-10 20:31N 44°41' W 063°37'0 0.0
2014-Sep-10 19:28N 44°41' W 063°37'0 0.0
2014-Sep-10 18:04N 44°41' W 063°37'0 0.0
2014-Sep-10 17:31N 44°41' W 063°37'0 0.0
2014-Sep-10 16:31N 44°41' W 063°37'0 0.0
2014-Sep-10 15:22N 44°41' W 063°37'0 0.0
2014-Sep-10 14:25N 44°41' W 063°37'0 0.0
2014-Sep-10 13:25N 44°41' W 063°37'0 0.0
2014-Sep-10 12:25N 44°41' W 063°37'0 0.0
2014-Sep-10 11:28N 44°41' W 063°37'0 0.0
2014-Sep-10 10:31N 44°41' W 063°37'0 0.0
2014-Sep-10 09:31N 44°41' W 063°37'0 0.0
2014-Sep-10 08:16N 44°41' W 063°37'0 0.0
2014-Sep-10 07:19N 44°41' W 063°37'0 0.0
2014-Sep-10 06:19N 44°41' W 063°37'0 0.0
2014-Sep-10 05:25N 44°41' W 063°37'0 0.0
2014-Sep-10 04:10N 44°41' W 063°37'0 0.0
2014-Sep-10 03:18N 44°41' W 063°37'0 0.0
2014-Sep-10 02:33N 44°41' W 063°37'0 0.0
2014-Sep-10 01:33N 44°41' W 063°37'0 0.0
2014-Sep-10 00:24N 44°41' W 063°37'0 0.0
2014-Sep-09 23:24N 44°41' W 063°37'0 0.0
2014-Sep-09 22:27N 44°41' W 063°37'  
Track history (hours):
 
Tides and Currents Weather Stations Pressure Air Temp Water Temp Dewpoint Dewpoint Depression Visibility Wind Speed Wind Dir Waves Ship Positions

Oceanographic research ship Hudson (Canada)

Detailed information on ship capabilities available from University of Delaware's Ocean Information Center.

Last reported at 2014-Sep-19 21:33 UTC. Time now 2014-Sep-20 15:58 UTC.
Position N 44°23' W 063°26'.

Length 85.03 m; beam 15.2 m; draft 6.28 m.

Type: SAR. MMSI: 316024000.

Date/timePositionNaut miles runAvg speedWind from/ knotsBaromVisibWave heightAir tempDewpointWater temp
2014-Sep-19 21:33N 44°23' W 063°26'8 2.4
2014-Sep-19 18:25N 44°30' W 063°31'910.7
2014-Sep-19 17:33N 44°39' W 063°34'4 3.8
2014-Sep-19 16:33N 44°41' W 063°38'0 0.3
2014-Sep-19 15:33N 44°41' W 063°39'1 0.5
2014-Sep-19 14:33N 44°41' W 063°38'1 0.5
2014-Sep-19 13:33N 44°42' W 063°39'1 1.1
2014-Sep-19 12:19N 44°41' W 063°37'0 0.0
2014-Sep-19 11:22N 44°41' W 063°37'0 0.0
2014-Sep-19 10:25N 44°41' W 063°37'0 0.0
2014-Sep-19 09:25N 44°41' W 063°37'0 0.0
2014-Sep-19 08:28N 44°41' W 063°37'0 0.0
2014-Sep-19 07:28N 44°41' W 063°37'0 0.0
2014-Sep-19 05:28N 44°41' W 063°37'0 0.0
2014-Sep-19 04:31N 44°41' W 063°37'0 0.0
2014-Sep-19 03:31N 44°41' W 063°37'0 0.0
2014-Sep-19 02:31N 44°41' W 063°37'0 0.0
2014-Sep-19 01:31N 44°41' W 063°37'0 0.0
2014-Sep-19 00:31N 44°41' W 063°37'0 0.0
2014-Sep-18 23:22N 44°41' W 063°37'0 0.0
2014-Sep-18 21:22N 44°41' W 063°37'0 0.0
2014-Sep-18 20:22N 44°41' W 063°37'0 0.0
2014-Sep-18 19:25N 44°41' W 063°37'0 0.0
2014-Sep-18 18:28N 44°41' W 063°37'0 0.0
2014-Sep-18 17:13N 44°41' W 063°37'0 0.0
2014-Sep-18 16:28N 44°41' W 063°37'0 0.0
2014-Sep-18 15:31N 44°41' W 063°37'0 0.0
2014-Sep-18 14:31N 44°41' W 063°37'0 0.0
2014-Sep-18 13:31N 44°41' W 063°37'0 0.0
2014-Sep-18 12:31N 44°41' W 063°37'0 0.0
2014-Sep-18 11:19N 44°41' W 063°37'0 0.0
2014-Sep-18 10:31N 44°41' W 063°37'0 0.0
2014-Sep-18 09:19N 44°41' W 063°37'0 0.0
2014-Sep-18 08:22N 44°41' W 063°37'0 0.0
2014-Sep-18 07:25N 44°41' W 063°37'0 0.0
2014-Sep-18 06:25N 44°41' W 063°37'0 0.0
2014-Sep-18 05:25N 44°41' W 063°37'0 0.0
2014-Sep-18 04:28N 44°41' W 063°37'0 0.0
2014-Sep-18 03:25N 44°41' W 063°37'0 0.0
2014-Sep-18 02:28N 44°41' W 063°37'0 0.0
2014-Sep-18 01:31N 44°41' W 063°37'0 0.0
2014-Sep-18 00:31N 44°41' W 063°37'0 0.0
2014-Sep-17 23:31N 44°41' W 063°37'0 0.0
2014-Sep-17 22:28N 44°41' W 063°37'0 0.0
2014-Sep-17 21:31N 44°41' W 063°37'0 0.0
2014-Sep-17 15:18N 44°41' W 063°37'0 0.0
2014-Sep-17 14:33N 44°41' W 063°37'0 0.0
2014-Sep-17 13:06N 44°41' W 063°37'0 0.0
2014-Sep-17 12:30N 44°41' W 063°37'0 0.0
2014-Sep-17 11:33N 44°41' W 063°37'0 0.0
2014-Sep-17 10:33N 44°41' W 063°37'0 0.0
2014-Sep-17 09:33N 44°41' W 063°37'0 0.0
2014-Sep-17 08:33N 44°41' W 063°37'0 0.0
2014-Sep-17 07:33N 44°41' W 063°37'0 0.0
2014-Sep-17 06:33N 44°41' W 063°37'0 0.0
2014-Sep-17 05:33N 44°41' W 063°37'0 0.0
2014-Sep-17 04:24N 44°41' W 063°37'0 0.0
2014-Sep-17 03:27N 44°41' W 063°37'0 0.0
2014-Sep-17 02:27N 44°41' W 063°37'0 0.0
2014-Sep-17 01:27N 44°41' W 063°37'0 0.0
2014-Sep-17 00:30N 44°41' W 063°37'0 0.0
2014-Sep-16 23:27N 44°41' W 063°37'0 0.0
2014-Sep-16 22:30N 44°41' W 063°37'0 0.0
2014-Sep-16 21:33N 44°41' W 063°37'0 0.0
2014-Sep-16 20:30N 44°41' W 063°37'0 0.0
2014-Sep-16 19:30N 44°41' W 063°37'0 0.0
2014-Sep-16 18:33N 44°41' W 063°37'0 0.0
2014-Sep-16 17:15N 44°41' W 063°37'0 0.0
2014-Sep-16 16:33N 44°41' W 063°37'0 0.0
2014-Sep-16 15:33N 44°41' W 063°37'0 0.0
2014-Sep-16 14:33N 44°41' W 063°37'0 0.0
2014-Sep-16 13:21N 44°41' W 063°37'0 0.0
2014-Sep-16 12:33N 44°41' W 063°37'0 0.0
2014-Sep-16 11:09N 44°41' W 063°37'0 0.0
2014-Sep-16 10:27N 44°41' W 063°37'0 0.0
2014-Sep-16 09:09N 44°41' W 063°37'0 0.0
2014-Sep-16 08:27N 44°41' W 063°37'0 0.0
2014-Sep-16 07:09N 44°41' W 063°37'0 0.0
2014-Sep-16 06:30N 44°41' W 063°37'0 0.0
2014-Sep-16 05:27N 44°41' W 063°37'0 0.0
2014-Sep-16 04:33N 44°41' W 063°37'0 0.0
2014-Sep-16 03:33N 44°41' W 063°37'0 0.0
2014-Sep-16 02:28N 44°41' W 063°37'0 0.0
2014-Sep-16 01:31N 44°41' W 063°37'0 0.0
2014-Sep-16 00:31N 44°41' W 063°37'0 0.0
2014-Sep-15 23:19N 44°41' W 063°37'0 0.0
2014-Sep-15 22:31N 44°41' W 063°37'0 0.0
2014-Sep-15 21:22N 44°41' W 063°37'0 0.0
2014-Sep-15 20:22N 44°41' W 063°37'0 0.0
2014-Sep-15 19:25N 44°41' W 063°37'0 0.0
2014-Sep-15 18:25N 44°41' W 063°37'0 0.0
2014-Sep-15 17:25N 44°41' W 063°37'0 0.0
2014-Sep-15 16:28N 44°41' W 063°37'0 0.0
2014-Sep-15 15:13N 44°41' W 063°37'0 0.0
2014-Sep-15 14:28N 44°41' W 063°37'0 0.0
2014-Sep-15 13:31N 44°41' W 063°37'0 0.0
2014-Sep-15 12:31N 44°41' W 063°37'0 0.0
2014-Sep-15 11:31N 44°41' W 063°37'0 0.0
2014-Sep-15 10:31N 44°41' W 063°37'0 0.0
2014-Sep-15 09:19N 44°41' W 063°37'0 0.0
2014-Sep-15 08:31N 44°41' W 063°37'0 0.0
2014-Sep-15 07:31N 44°41' W 063°37'0 0.0
2014-Sep-15 06:22N 44°41' W 063°37'0 0.0
2014-Sep-15 05:25N 44°41' W 063°37'0 0.0
2014-Sep-15 04:25N 44°41' W 063°37'0 0.0
2014-Sep-15 03:25N 44°41' W 063°37'0 0.0
2014-Sep-15 02:28N 44°41' W 063°37'0 0.0
2014-Sep-15 01:28N 44°41' W 063°37'0 0.0
2014-Sep-15 00:28N 44°41' W 063°37'0 0.0
2014-Sep-14 23:31N 44°41' W 063°37'0 0.0
2014-Sep-14 22:28N 44°41' W 063°37'0 0.0
2014-Sep-14 21:31N 44°41' W 063°37'0 0.0
2014-Sep-14 20:31N 44°41' W 063°37'0 0.0
2014-Sep-14 19:31N 44°41' W 063°37'0 0.0
2014-Sep-14 18:31N 44°41' W 063°37'0 0.0
2014-Sep-14 17:31N 44°41' W 063°37'0 0.0
2014-Sep-14 16:22N 44°41' W 063°37'0 0.0
2014-Sep-14 15:25N 44°41' W 063°37'0 0.0
2014-Sep-14 14:25N 44°41' W 063°37'0 0.0
2014-Sep-14 13:25N 44°41' W 063°37'0 0.0
2014-Sep-14 12:28N 44°41' W 063°37'0 0.0
2014-Sep-14 11:28N 44°41' W 063°37'0 0.0
2014-Sep-14 10:28N 44°41' W 063°37'0 0.0
2014-Sep-14 09:31N 44°41' W 063°37'0 0.0
2014-Sep-14 08:31N 44°41' W 063°37'0 0.0
2014-Sep-14 07:28N 44°41' W 063°37'0 0.0
2014-Sep-14 06:31N 44°41' W 063°37'0 0.0
2014-Sep-14 05:31N 44°41' W 063°37'0 0.0
2014-Sep-14 04:22N 44°41' W 063°37'0 0.0
2014-Sep-14 03:31N 44°41' W 063°37'0 0.0
2014-Sep-14 02:07N 44°41' W 063°37'0 0.0
2014-Sep-14 01:25N 44°41' W 063°37'0 0.0
2014-Sep-13 21:28N 44°41' W 063°37'0 0.0
2014-Sep-13 20:28N 44°41' W 063°37'0 0.0
2014-Sep-13 19:28N 44°41' W 063°37'0 0.0
2014-Sep-13 18:31N 44°41' W 063°37'0 0.0
2014-Sep-13 17:31N 44°41' W 063°37'0 0.0
2014-Sep-13 16:19N 44°41' W 063°37'0 0.0
2014-Sep-13 15:31N 44°41' W 063°37'0 0.0
2014-Sep-13 14:31N 44°41' W 063°37'0 0.0
2014-Sep-13 13:22N 44°41' W 063°37'0 0.0
2014-Sep-13 12:25N 44°41' W 063°37'0 0.0
2014-Sep-13 11:22N 44°41' W 063°37'0 0.0
2014-Sep-13 10:22N 44°41' W 063°37'0 0.0
2014-Sep-13 09:25N 44°41' W 063°37'0 0.0
2014-Sep-13 08:28N 44°41' W 063°37'0 0.0
2014-Sep-13 07:28N 44°41' W 063°37'0 0.0
2014-Sep-13 06:28N 44°41' W 063°37'0 0.0
2014-Sep-13 05:25N 44°41' W 063°37'0 0.0
2014-Sep-13 04:31N 44°41' W 063°37'0 0.0
2014-Sep-13 03:31N 44°41' W 063°37'0 0.0
2014-Sep-13 02:28N 44°41' W 063°37'0 0.0
2014-Sep-13 01:19N 44°41' W 063°37'0 0.0
2014-Sep-13 00:31N 44°41' W 063°37'0 0.0
2014-Sep-12 23:22N 44°41' W 063°37'0 0.0
2014-Sep-12 22:22N 44°41' W 063°37'0 0.0
2014-Sep-12 21:25N 44°41' W 063°37'0 0.0
2014-Sep-12 20:25N 44°41' W 063°37'0 0.0
2014-Sep-12 19:13N 44°41' W 063°37'0 0.0
2014-Sep-12 18:28N 44°41' W 063°37'0 0.0
2014-Sep-12 17:28N 44°41' W 063°37'0 0.0
2014-Sep-12 16:31N 44°41' W 063°37'0 0.0
2014-Sep-12 15:16N 44°41' W 063°37'0 0.0
2014-Sep-12 14:31N 44°41' W 063°37'0 0.0
2014-Sep-12 13:28N 44°41' W 063°37'0 0.0
2014-Sep-12 12:19N 44°41' W 063°37'0 0.0
2014-Sep-12 11:31N 44°41' W 063°37'0 0.0
2014-Sep-12 10:31N 44°41' W 063°37'0 0.0
2014-Sep-12 09:22N 44°41' W 063°37'0 0.0
2014-Sep-12 08:25N 44°41' W 063°37'0 0.0
2014-Sep-12 07:25N 44°41' W 063°37'0 0.0
2014-Sep-12 06:25N 44°41' W 063°37'0 0.0
2014-Sep-12 05:28N 44°41' W 063°37'0 0.0
2014-Sep-12 04:28N 44°41' W 063°37'0 0.0
2014-Sep-12 03:28N 44°41' W 063°37'0 0.0
2014-Sep-12 02:25N 44°41' W 063°37'0 0.0
2014-Sep-12 01:31N 44°41' W 063°37'0 0.0
2014-Sep-12 00:31N 44°41' W 063°37'0 0.0
2014-Sep-11 23:28N 44°41' W 063°37'0 0.0
2014-Sep-11 22:31N 44°41' W 063°37'0 0.0
2014-Sep-11 21:31N 44°41' W 063°37'0 0.0
2014-Sep-11 20:31N 44°41' W 063°37'0 0.0
2014-Sep-11 19:22N 44°41' W 063°37'0 0.0
2014-Sep-11 18:25N 44°41' W 063°37'0 0.0
2014-Sep-11 17:25N 44°41' W 063°37'0 0.0
2014-Sep-11 16:25N 44°41' W 063°37'0 0.0
2014-Sep-11 15:28N 44°41' W 063°37'0 0.0
2014-Sep-11 14:28N 44°41' W 063°37'0 0.0
2014-Sep-11 13:28N 44°41' W 063°37'0 0.0
2014-Sep-11 12:31N 44°41' W 063°37'0 0.0
2014-Sep-11 11:28N 44°41' W 063°37'0 0.0
2014-Sep-11 10:31N 44°41' W 063°37'0 0.0
2014-Sep-11 09:19N 44°41' W 063°37'0 0.0
2014-Sep-11 08:31N 44°41' W 063°37'0 0.0
2014-Sep-11 07:22N 44°41' W 063°37'0 0.0
2014-Sep-11 06:22N 44°41' W 063°37'0 0.0
2014-Sep-11 05:22N 44°41' W 063°37'0 0.0
2014-Sep-11 04:25N 44°41' W 063°37'0 0.0
2014-Sep-11 03:25N 44°41' W 063°37'0 0.0
2014-Sep-11 02:25N 44°41' W 063°37'0 0.0
2014-Sep-11 01:28N 44°41' W 063°37'0 0.0
2014-Sep-11 00:28N 44°41' W 063°37'0 0.0
2014-Sep-10 23:28N 44°41' W 063°37'0 0.0
2014-Sep-10 22:31N 44°41' W 063°37'0 0.0
2014-Sep-10 21:31N 44°41' W 063°37'0 0.0
2014-Sep-10 20:31N 44°41' W 063°37'0 0.0
2014-Sep-10 19:28N 44°41' W 063°37'0 0.0
2014-Sep-10 18:04N 44°41' W 063°37'0 0.0
2014-Sep-10 17:31N 44°41' W 063°37'0 0.0
2014-Sep-10 16:31N 44°41' W 063°37'0 0.0
2014-Sep-10 15:22N 44°41' W 063°37'0 0.0
2014-Sep-10 14:25N 44°41' W 063°37'0 0.0
2014-Sep-10 13:25N 44°41' W 063°37'0 0.0
2014-Sep-10 12:25N 44°41' W 063°37'0 0.0
2014-Sep-10 11:28N 44°41' W 063°37'0 0.0
2014-Sep-10 10:31N 44°41' W 063°37'0 0.0
2014-Sep-10 09:31N 44°41' W 063°37'0 0.0
2014-Sep-10 08:16N 44°41' W 063°37'0 0.0
2014-Sep-10 07:19N 44°41' W 063°37'0 0.0
2014-Sep-10 06:19N 44°41' W 063°37'0 0.0
2014-Sep-10 05:25N 44°41' W 063°37'0 0.0
2014-Sep-10 04:10N 44°41' W 063°37'0 0.0
2014-Sep-10 03:18N 44°41' W 063°37'0 0.0
2014-Sep-10 02:33N 44°41' W 063°37'0 0.0
2014-Sep-10 01:33N 44°41' W 063°37'0 0.0
2014-Sep-10 00:24N 44°41' W 063°37'0 0.0
2014-Sep-09 23:24N 44°41' W 063°37'0 0.0
2014-Sep-09 22:27N 44°41' W 063°37'  

Dump ship's entire track history